Time;durP1;ratioP1;P1;durP2;ratioP2;P2;SDS_P1;SDS_P2;PMS_P1;PMS_P2;Temp;Humidity;BMP_temperature;BMP_pressure;BME280_temperature;BME280_humidity;BME280_pressure;Samples;Min_cycle;Max_cycle;Signal;HPM_P1;HPM_P2
2023/06/16 00:01:16;;;;;;;18.70;11.60;;;12.80;99.90;12.10;100315;;;;579511;244;24038;-78
2023/06/16 00:03:49;;;;;;;22.03;12.90;;;12.80;99.90;12.10;100320;;;;579490;244;24046;-79
2023/06/16 00:06:14;;;;;;;14.37;11.37;;;12.80;99.90;12.00;100314;;;;579472;244;24102;-80
2023/06/16 00:08:45;;;;;;;19.23;12.83;;;12.70;99.90;12.00;100316;;;;579445;244;24091;-80
2023/06/16 00:11:16;;;;;;;18.70;12.80;;;12.70;99.90;11.90;100313;;;;579231;244;24073;-81
2023/06/16 00:13:41;;;;;;;17.47;10.80;;;12.70;99.90;11.90;100313;;;;578914;244;24041;-80
2023/06/16 00:16:09;;;;;;;18.87;11.43;;;12.60;99.90;11.90;100313;;;;579169;244;24052;-81
2023/06/16 00:18:40;;;;;;;15.77;11.27;;;12.60;99.90;11.80;100307;;;;579237;244;24052;-80
2023/06/16 00:21:08;;;;;;;16.57;10.87;;;12.60;99.90;11.80;100310;;;;578399;244;24062;-78
2023/06/16 00:23:32;;;;;;;17.60;11.13;;;12.50;99.90;11.70;100310;;;;579262;244;24102;-79
2023/06/16 00:26:00;;;;;;;16.73;11.40;;;12.50;99.90;11.80;100312;;;;578911;244;24069;-80
2023/06/16 00:28:28;;;;;;;23.33;12.63;;;12.50;99.90;11.80;100316;;;;578750;244;24053;-79
2023/06/16 00:30:56;;;;;;;17.80;11.77;;;12.50;99.90;11.80;100312;;;;578881;244;24054;-78
2023/06/16 00:33:24;;;;;;;18.97;11.80;;;12.50;99.90;11.70;100306;;;;578816;244;24054;-78
2023/06/16 00:35:52;;;;;;;13.70;11.00;;;12.50;99.90;11.70;100308;;;;578916;244;24081;-79
2023/06/16 00:38:20;;;;;;;17.27;12.37;;;12.40;99.90;11.70;100304;;;;578817;244;24051;-79
2023/06/16 00:40:48;;;;;;;20.10;12.07;;;12.40;99.90;11.70;100311;;;;579232;244;24096;-79
2023/06/16 00:43:16;;;;;;;16.23;11.67;;;12.40;99.90;11.60;100300;;;;578852;244;24058;-80
2023/06/16 00:45:47;;;;;;;23.20;11.23;;;12.40;99.90;11.60;100301;;;;579384;243;24051;-79
2023/06/16 00:48:12;;;;;;;15.17;10.63;;;12.30;99.90;11.70;100302;;;;579573;243;24108;-80
2023/06/16 00:50:40;;;;;;;17.93;11.13;;;12.30;99.90;11.70;100307;;;;579732;244;24065;-79
2023/06/16 00:53:11;;;;;;;15.87;10.57;;;12.40;99.90;11.70;100301;;;;579950;244;24056;-79
2023/06/16 00:55:40;;;;;;;15.77;10.60;;;12.40;99.90;11.70;100304;;;;579204;244;24071;-78
2023/06/16 00:58:08;;;;;;;24.70;13.93;;;12.30;99.90;11.60;100302;;;;578966;244;24095;-79
2023/06/16 01:00:35;;;;;;;17.50;11.53;;;12.30;99.90;11.60;100301;;;;579575;244;24057;-79
2023/06/16 01:03:04;;;;;;;16.17;10.97;;;12.30;99.90;11.60;100310;;;;579715;244;24056;-78
2023/06/16 01:05:32;;;;;;;14.63;10.80;;;12.40;99.90;11.70;100304;;;;579361;244;24055;-79
2023/06/16 01:08:30;;;;;;;20.73;11.43;;;12.50;99.90;11.80;100304;;;;579499;244;24096;-79
2023/06/16 01:11:11;;;;;;;17.70;11.67;;;12.40;99.90;11.90;100305;;;;579018;244;24079;-79
2023/06/16 01:14:06;;;;;;;19.57;13.10;;;12.50;99.90;11.90;100296;;;;579246;244;24108;-80
2023/06/16 01:16:35;;;;;;;17.67;11.47;;;12.60;99.90;12.00;100303;;;;579612;244;24096;-79
2023/06/16 01:19:02;;;;;;;13.60;11.20;;;12.70;99.90;12.10;100306;;;;579495;244;24065;-77
2023/06/16 01:21:43;;;;;;;18.47;11.67;;;12.70;99.90;12.10;100306;;;;588575;244;24047;-79
2023/06/16 01:24:10;;;;;;;19.70;11.50;;;12.80;99.90;12.10;100306;;;;578870;244;24073;-80
2023/06/16 01:26:38;;;;;;;13.70;10.43;;;12.80;99.90;12.20;100298;;;;578331;244;24064;-80
2023/06/16 01:29:08;;;;;;;18.50;11.57;;;12.80;99.90;12.20;100303;;;;578798;244;24123;-80
2023/06/16 01:31:34;;;;;;;22.07;11.03;;;12.90;99.90;12.20;100311;;;;578523;244;24087;-80
2023/06/16 01:34:02;;;;;;;15.07;10.50;;;12.90;99.90;12.30;100309;;;;578858;244;24053;-80
2023/06/16 01:36:31;;;;;;;15.40;10.63;;;12.90;99.90;12.30;100319;;;;578866;244;24081;-79
2023/06/16 01:39:01;;;;;;;15.80;11.77;;;13.00;99.90;12.30;100316;;;;578676;244;24080;-79
2023/06/16 01:41:34;;;;;;;16.30;10.90;;;13.00;99.90;12.40;100312;;;;578828;244;24066;-79
2023/06/16 01:43:59;;;;;;;15.93;10.77;;;13.10;99.90;12.40;100312;;;;578179;244;24057;-79
2023/06/16 01:46:27;;;;;;;17.37;11.90;;;13.10;99.90;12.40;100301;;;;578983;244;24055;-80
2023/06/16 01:48:55;;;;;;;17.27;10.80;;;13.10;99.90;12.50;100303;;;;578669;244;24073;-79
2023/06/16 01:51:23;;;;;;;16.97;10.90;;;13.10;99.90;12.50;100303;;;;578956;244;24045;-79
2023/06/16 01:53:51;;;;;;;17.97;12.90;;;13.20;99.90;12.60;100294;;;;579244;244;24064;-79
2023/06/16 01:56:22;;;;;;;27.97;19.63;;;13.20;99.90;12.60;100294;;;;573644;244;35174;-79
2023/06/16 01:58:50;;;;;;;26.65;21.17;;;13.30;99.90;12.70;100300;;;;575134;243;35128;-78
2023/06/16 02:01:19;;;;;;;30.88;22.35;;;13.30;99.90;12.80;100299;;;;574543;243;35106;-78
2023/06/16 02:04:14;;;;;;;24.93;14.53;;;13.40;99.90;12.90;100300;;;;577631;244;24054;-79
2023/06/16 02:06:51;;;;;;;26.87;14.50;;;13.50;99.90;12.90;100296;;;;580129;244;24093;-79
2023/06/16 02:09:19;;;;;;;17.97;11.80;;;13.60;99.90;12.90;100293;;;;579455;244;24058;-78
2023/06/16 02:11:51;;;;;;;19.70;12.93;;;13.60;99.90;13.00;100297;;;;579423;244;24063;-79
2023/06/16 02:14:15;;;;;;;18.87;12.93;;;13.60;99.90;13.00;100297;;;;579076;244;24084;-79
2023/06/16 02:16:44;;;;;;;21.80;11.77;;;13.60;99.90;13.00;100296;;;;579022;244;24141;-79
2023/06/16 02:19:15;;;;;;;21.70;12.40;;;13.70;99.90;13.10;100296;;;;579179;244;24099;-79
2023/06/16 02:21:42;;;;;;;28.00;14.20;;;13.70;99.90;13.10;100298;;;;578672;244;24049;-79
2023/06/16 02:24:09;;;;;;;19.10;11.93;;;13.70;99.90;13.10;100299;;;;579515;244;24048;-80
2023/06/16 02:26:38;;;;;;;17.57;12.70;;;13.70;99.90;13.00;100306;;;;579074;244;24121;-81
2023/06/16 02:29:07;;;;;;;18.37;12.53;;;13.70;99.90;13.10;100300;;;;579229;244;24063;-80
2023/06/16 02:31:35;;;;;;;16.57;11.63;;;13.70;99.90;13.10;100295;;;;579135;244;24085;-80
2023/06/16 02:34:04;;;;;;;17.17;12.20;;;13.80;99.90;13.10;100293;;;;578851;244;24064;-80
2023/06/16 02:36:33;;;;;;;19.47;12.80;;;13.70;99.90;13.20;100291;;;;578879;244;24053;-80
2023/06/16 02:38:59;;;;;;;18.77;12.07;;;13.80;99.90;13.20;100279;;;;578755;244;24113;-80
2023/06/16 02:41:27;;;;;;;25.50;20.07;;;13.80;99.90;13.20;100288;;;;573968;244;36994;-80
2023/06/16 02:43:55;;;;;;;30.27;22.10;;;13.80;99.90;13.30;100291;;;;573858;244;45980;-79
2023/06/16 02:46:23;;;;;;;23.77;17.37;;;13.90;99.90;13.30;100292;;;;579011;244;24068;-79
2023/06/16 02:48:51;;;;;;;23.27;14.37;;;14.00;99.90;13.40;100294;;;;578835;244;24041;-79
2023/06/16 02:51:19;;;;;;;18.67;14.27;;;14.10;99.90;13.50;100285;;;;578722;244;24049;-79
2023/06/16 02:53:47;;;;;;;22.80;13.83;;;14.10;99.90;13.50;100288;;;;579231;244;24056;-80
2023/06/16 02:56:18;;;;;;;23.07;15.97;;;14.20;99.90;13.60;100287;;;;579225;244;24111;-78
2023/06/16 02:58:43;;;;;;;19.37;14.87;;;14.20;99.90;13.70;100286;;;;578804;244;24091;-79
2023/06/16 03:01:11;;;;;;;22.83;15.47;;;14.30;99.90;13.70;100286;;;;578909;244;24080;-78
2023/06/16 03:03:39;;;;;;;26.33;16.07;;;14.50;99.90;13.80;100281;;;;578776;244;24092;-78
2023/06/16 03:06:11;;;;;;;29.20;16.13;;;14.50;99.90;13.90;100276;;;;578934;244;24088;-79
2023/06/16 03:08:36;;;;;;;27.63;15.47;;;14.50;99.90;13.90;100278;;;;578866;242;24081;-79
2023/06/16 03:11:04;;;;;;;29.53;16.37;;;14.50;99.90;13.90;100284;;;;580321;243;24100;-80
2023/06/16 03:13:33;;;;;;;29.73;14.50;;;14.60;99.90;14.00;100276;;;;579817;244;24061;-79
2023/06/16 03:16:02;;;;;;;26.43;15.37;;;14.70;99.90;14.10;100280;;;;579815;244;24058;-79
2023/06/16 03:18:32;;;;;;;25.80;15.87;;;14.70;99.90;14.20;100280;;;;579585;244;24076;-81
2023/06/16 03:20:57;;;;;;;33.13;22.60;;;14.80;99.90;14.50;100286;;;;574127;244;42925;-80
2023/06/16 03:23:25;;;;;;;30.62;22.17;;;15.00;99.90;14.70;100282;;;;574459;244;35123;-80
2023/06/16 03:25:53;;;;;;;26.53;17.83;;;15.30;99.90;14.80;100288;;;;579743;244;24046;-79
2023/06/16 03:28:21;;;;;;;27.77;16.83;;;15.40;99.90;14.90;100285;;;;579289;244;24041;-78
2023/06/16 03:30:52;;;;;;;22.93;15.27;;;15.60;99.90;14.90;100281;;;;579133;244;24047;-80
2023/06/16 03:33:17;;;;;;;18.87;14.33;;;15.60;99.90;14.80;100279;;;;579086;244;24114;-78
2023/06/16 03:35:45;;;;;;;19.33;13.67;;;15.60;99.90;14.80;100279;;;;579245;244;24071;-79
2023/06/16 03:38:13;;;;;;;18.63;13.30;;;15.60;99.90;14.90;100286;;;;579138;244;24071;-80
2023/06/16 03:40:40;;;;;;;21.07;14.77;;;15.70;99.90;15.00;100280;;;;579241;244;24161;-80
2023/06/16 03:43:08;;;;;;;23.47;13.60;;;15.70;99.90;15.10;100275;;;;579177;244;24062;-78
2023/06/16 03:45:36;;;;;;;20.80;12.93;;;15.80;99.90;15.10;100281;;;;578888;244;24088;-78
2023/06/16 03:48:05;;;;;;;23.20;12.90;;;15.90;99.90;15.20;100282;;;;578972;244;24070;-78
2023/06/16 03:50:32;;;;;;;23.87;12.80;;;16.00;99.90;15.30;100287;;;;578695;244;24122;-79
2023/06/16 03:53:00;;;;;;;29.10;13.07;;;16.00;99.90;15.30;100284;;;;578941;244;24049;-78
2023/06/16 03:55:31;;;;;;;25.03;12.20;;;16.10;99.90;15.30;100282;;;;579262;244;24104;-79
2023/06/16 03:57:59;;;;;;;38.50;10.13;;;16.10;99.90;15.30;100279;;;;579085;244;24070;-79
2023/06/16 04:00:27;;;;;;;41.67;11.57;;;16.10;99.90;15.40;100284;;;;579276;244;24183;-78
2023/06/16 04:02:55;;;;;;;20.33;11.97;;;16.10;99.90;15.40;100284;;;;579263;244;24052;-78
2023/06/16 04:05:23;;;;;;;45.37;11.47;;;16.10;99.90;15.50;100287;;;;579238;244;24068;-79
2023/06/16 04:07:51;;;;;;;21.57;10.63;;;16.20;99.90;15.60;100278;;;;579300;244;24057;-79
2023/06/16 04:10:19;;;;;;;14.10;9.30;;;16.30;99.90;15.70;100271;;;;579289;244;24061;-78
2023/06/16 04:12:46;;;;;;;26.77;10.57;;;16.40;99.90;15.80;100273;;;;579263;244;24050;-80
2023/06/16 04:15:14;;;;;;;13.83;8.97;;;16.50;99.90;16.00;100279;;;;579254;244;24087;-80
2023/06/16 04:17:42;;;;;;;14.67;8.37;;;16.70;99.90;16.20;100278;;;;579298;244;24094;-78
2023/06/16 04:20:11;;;;;;;13.23;8.50;;;16.90;99.90;16.30;100280;;;;579520;242;24035;-80
2023/06/16 04:22:42;;;;;;;16.03;7.83;;;17.00;99.90;16.40;100286;;;;580557;243;24116;-78
2023/06/16 04:25:09;;;;;;;18.27;8.23;;;17.10;99.90;16.40;100280;;;;579421;244;24053;-79
2023/06/16 04:27:36;;;;;;;12.50;7.13;;;17.10;99.90;16.30;100273;;;;579625;244;24067;-79
2023/06/16 04:30:04;;;;;;;11.30;7.77;;;17.00;99.90;16.20;100282;;;;579428;244;24076;-79
2023/06/16 04:32:30;;;;;;;23.50;8.97;;;16.90;99.90;16.10;100284;;;;579272;244;24171;-78
2023/06/16 04:34:58;;;;;;;10.73;8.23;;;16.90;99.90;16.00;100271;;;;579456;244;24105;-80
2023/06/16 04:37:26;;;;;;;12.43;8.40;;;16.80;99.90;16.00;100284;;;;579343;244;24062;-79
2023/06/16 04:39:54;;;;;;;14.17;8.40;;;16.70;99.90;16.00;100287;;;;579253;244;24163;-79
2023/06/16 04:42:25;;;;;;;20.83;8.33;;;16.70;99.90;16.00;100288;;;;579112;244;24096;-80
2023/06/16 04:44:50;;;;;;;12.30;8.70;;;16.70;99.90;16.10;100288;;;;578340;244;24080;-81
2023/06/16 04:47:17;;;;;;;12.33;7.90;;;16.70;99.90;16.10;100294;;;;579299;244;24084;-80
2023/06/16 04:49:45;;;;;;;12.10;8.70;;;16.80;99.90;16.20;100294;;;;579213;244;24071;-79
2023/06/16 04:52:13;;;;;;;13.57;8.37;;;16.80;99.90;16.30;100292;;;;579315;244;24059;-79
2023/06/16 04:54:41;;;;;;;11.37;7.63;;;16.90;99.90;16.50;100298;;;;579307;244;24075;-80
2023/06/16 04:57:09;;;;;;;13.40;8.93;;;17.10;99.90;16.60;100295;;;;579573;244;24091;-79
2023/06/16 04:59:37;;;;;;;11.70;8.27;;;17.20;99.90;16.80;100289;;;;579200;244;24064;-80
2023/06/16 05:02:09;;;;;;;12.83;8.17;;;17.40;99.90;17.00;100294;;;;578976;244;24091;-79
2023/06/16 05:04:33;;;;;;;12.23;7.77;;;17.60;99.90;17.20;100300;;;;578420;244;24059;-80
2023/06/16 05:07:01;;;;;;;9.07;7.53;;;17.80;99.90;17.40;100295;;;;579032;244;24080;-79
2023/06/16 05:09:29;;;;;;;12.97;7.37;;;18.00;99.90;17.60;100297;;;;579451;244;24083;-79
2023/06/16 05:11:56;;;;;;;9.77;7.63;;;18.20;99.90;17.80;100293;;;;579286;244;24048;-79
2023/06/16 05:14:24;;;;;;;8.37;7.07;;;18.40;99.90;18.60;100296;;;;579190;244;24083;-78
2023/06/16 05:16:56;;;;;;;9.53;8.17;;;19.10;99.90;19.90;100299;;;;579147;244;24084;-79
2023/06/16 05:19:21;;;;;;;8.83;7.50;;;21.20;99.90;20.60;100289;;;;578938;244;23082;-78
2023/06/16 05:21:49;;;;;;;8.93;8.13;;;21.10;99.90;21.10;100287;;;;578996;244;24098;-79
2023/06/16 05:24:17;;;;;;;8.53;6.90;;;21.70;99.90;21.40;100286;;;;578860;244;24044;-79
2023/06/16 05:26:45;;;;;;;11.67;6.97;;;22.00;99.90;21.70;100284;;;;578929;244;24105;-79
2023/06/16 05:29:13;;;;;;;10.67;7.23;;;22.40;99.90;22.70;100285;;;;582106;244;24065;-80
2023/06/16 05:31:41;;;;;;;10.70;8.27;;;25.30;99.90;24.90;100289;;;;579029;242;24070;-79
2023/06/16 05:34:09;;;;;;;9.13;7.50;;;25.20;99.90;27.00;100298;;;;580254;243;23107;-79
2023/06/16 05:36:37;;;;;;;8.53;7.60;;;27.60;99.90;28.70;100302;;;;579834;244;24076;-79
2023/06/16 05:39:08;;;;;;;9.02;7.60;;;29.40;99.90;30.20;100308;;;;579797;244;23092;-80
2023/06/16 05:41:36;;;;;;;7.62;6.78;;;31.00;99.80;31.90;100302;;;;579463;244;23103;-81
2023/06/16 05:44:08;;;;;;;8.77;7.22;;;33.80;85.60;33.00;100302;;;;579841;244;23083;-80
2023/06/16 05:46:33;;;;;;;8.50;7.80;;;34.90;74.70;34.10;100306;;;;578758;244;23080;-80
2023/06/16 05:49:02;;;;;;;8.90;8.02;;;35.70;65.50;35.10;100310;;;;579361;244;23091;-80
2023/06/16 05:51:30;;;;;;;7.53;6.87;;;35.70;65.50;35.10;100316;;;;579176;244;23105;-80
2023/06/16 05:53:58;;;;;;;8.65;7.68;;;36.10;63.10;35.50;100313;;;;579102;244;24094;-80
2023/06/16 05:56:26;;;;;;;8.98;8.27;;;36.50;61.90;36.20;100320;;;;579232;244;23126;-79
2023/06/16 05:58:53;;;;;;;9.30;8.27;;;37.00;59.90;36.80;100322;;;;579166;244;23164;-80
2023/06/16 06:01:21;;;;;;;9.13;8.32;;;37.70;58.00;37.30;100331;;;;579009;244;24159;-80
2023/06/16 06:03:49;;;;;;;8.20;7.50;;;38.10;55.60;37.40;100332;;;;579073;244;24118;-81
2023/06/16 06:06:17;;;;;;;9.65;8.65;;;38.40;55.20;38.10;100337;;;;579092;244;23077;-80
2023/06/16 06:08:46;;;;;;;7.82;7.12;;;39.00;52.60;38.10;100334;;;;579070;244;24072;-80
2023/06/16 06:11:15;;;;;;;8.95;8.07;;;39.30;52.90;38.50;100325;;;;578809;244;24108;-82
2023/06/16 06:13:43;;;;;;;8.43;7.50;;;40.00;52.60;39.30;100338;;;;578999;244;23089;-80
2023/06/16 06:16:11;;;;;;;7.53;7.00;;;39.90;52.50;40.30;100340;;;;578845;244;23074;-80
2023/06/16 06:18:43;;;;;;;8.32;7.30;;;40.80;51.30;40.90;100341;;;;578734;244;23063;-81
2023/06/16 06:21:07;;;;;;;7.10;6.50;;;41.50;48.70;41.30;100344;;;;578904;244;23091;-80
2023/06/16 06:23:35;;;;;;;13.05;7.22;;;41.90;46.90;41.50;100343;;;;578795;244;23063;-80
2023/06/16 06:26:03;;;;;;;7.90;6.40;;;42.20;45.80;41.40;100345;;;;579012;244;23055;-79
2023/06/16 06:28:31;;;;;;;7.47;6.78;;;42.20;45.30;41.30;100356;;;;578837;244;23103;-80
2023/06/16 06:30:59;;;;;;;6.87;6.35;;;42.20;45.40;41.50;100365;;;;579291;244;23054;-80
2023/06/16 06:33:27;;;;;;;8.82;6.37;;;42.30;45.20;41.20;100362;;;;578989;244;23074;-80
2023/06/16 06:35:57;;;;;;;8.40;6.07;;;42.00;45.10;41.00;100368;;;;578780;244;23060;-81
2023/06/16 06:38:25;;;;;;;6.30;5.80;;;41.90;45.50;40.20;100373;;;;578921;244;23064;-80
2023/06/16 06:40:53;;;;;;;7.30;6.70;;;41.20;45.10;39.70;100373;;;;578859;244;23085;-82
2023/06/16 06:43:21;;;;;;;6.22;5.68;;;40.60;46.10;39.00;100375;;;;579318;242;23347;-81
2023/06/16 06:45:52;;;;;;;7.53;6.85;;;39.60;47.20;38.90;100375;;;;580205;243;23101;-80
2023/06/16 06:48:18;;;;;;;7.25;6.55;;;40.00;47.00;39.60;100377;;;;582401;244;23120;-80
2023/06/16 06:50:49;;;;;;;7.97;6.37;;;40.10;47.00;40.70;100372;;;;579729;244;23078;-81
2023/06/16 06:53:14;;;;;;;7.22;6.53;;;41.00;46.70;41.80;100374;;;;579179;244;23086;-81
2023/06/16 06:55:42;;;;;;;6.97;6.22;;;42.10;46.20;42.80;100380;;;;579484;244;23095;-82
2023/06/16 06:58:10;;;;;;;6.47;5.97;;;43.10;45.10;43.80;100373;;;;579436;244;23096;-80
2023/06/16 07:00:38;;;;;;;5.55;5.05;;;44.10;42.30;43.50;100378;;;;579748;244;23055;-81
2023/06/16 07:03:06;;;;;;;10.93;6.10;;;44.20;41.30;43.80;100381;;;;579517;244;23109;-81
2023/06/16 07:05:34;;;;;;;5.60;5.07;;;44.40;41.20;43.70;100371;;;;578983;244;23082;-80
2023/06/16 07:08:05;;;;;;;5.72;5.32;;;44.40;40.70;43.30;100376;;;;579234;244;23116;-81
2023/06/16 07:10:32;;;;;;;6.37;5.90;;;44.20;40.80;43.60;100376;;;;578721;244;24092;-81
2023/06/16 07:12:57;;;;;;;6.70;5.57;;;44.20;41.70;44.50;100376;;;;578962;244;23071;-80
2023/06/16 07:15:25;;;;;;;8.18;5.55;;;44.80;40.80;44.90;100378;;;;579123;244;23080;-80
2023/06/16 07:17:57;;;;;;;6.47;5.97;;;45.30;40.90;45.00;100377;;;;573981;244;35095;-81
2023/06/16 07:20:21;;;;;;;7.12;6.07;;;45.50;38.70;44.60;100377;;;;576450;244;23064;-80
2023/06/16 07:22:50;;;;;;;5.65;5.28;;;45.10;38.90;44.20;100382;;;;578892;244;23063;-80
2023/06/16 07:25:21;;;;;;;5.90;5.28;;;45.10;38.90;43.30;100388;;;;578974;244;23103;-80
2023/06/16 07:27:46;;;;;;;7.22;5.20;;;44.40;39.80;43.90;100386;;;;578509;244;24105;-80
2023/06/16 07:30:13;;;;;;;6.28;5.70;;;44.40;40.20;44.90;100389;;;;579272;244;23059;-80
2023/06/16 07:32:42;;;;;;;6.53;6.12;;;45.10;39.80;44.90;100395;;;;579271;244;23046;-81
2023/06/16 07:35:10;;;;;;;7.47;7.00;;;45.30;40.10;44.40;100392;;;;578779;244;23083;-81
2023/06/16 07:37:37;;;;;;;6.78;6.20;;;45.00;40.40;45.10;100383;;;;578909;244;23062;-81
2023/06/16 07:40:08;;;;;;;6.18;5.55;;;45.30;39.70;46.10;100390;;;;578862;244;23067;-80
2023/06/16 07:42:33;;;;;;;7.40;5.85;;;46.10;38.90;46.40;100386;;;;578719;244;23145;-80
2023/06/16 07:45:01;;;;;;;8.23;7.43;;;46.70;37.40;45.70;100390;;;;573846;244;35118;-80
2023/06/16 07:47:29;;;;;;;10.43;7.70;;;46.50;37.60;44.80;100389;;;;578727;244;23053;-80
2023/06/16 07:49:57;;;;;;;23.77;8.07;;;45.90;38.30;45.00;100382;;;;578921;244;24088;-80
2023/06/16 07:52:25;;;;;;;7.97;6.18;;;45.60;38.10;44.60;100392;;;;578759;244;23055;-80
2023/06/16 07:54:53;;;;;;;13.18;5.80;;;45.50;37.50;44.50;100389;;;;579252;242;23157;-80
2023/06/16 07:57:21;;;;;;;7.32;6.45;;;45.40;38.00;44.40;100397;;;;580181;243;23083;-81
2023/06/16 07:59:49;;;;;;;7.07;6.47;;;45.30;37.90;43.70;100390;;;;580226;244;23125;-79
2023/06/16 08:02:17;;;;;;;5.43;4.93;;;44.70;38.70;43.70;100394;;;;579711;244;23059;-80
2023/06/16 08:04:45;;;;;;;6.35;5.72;;;44.60;38.70;43.90;100391;;;;579478;244;23068;-80
2023/06/16 08:07:13;;;;;;;6.93;6.22;;;44.60;37.70;43.10;100401;;;;579303;244;23177;-80
2023/06/16 08:09:41;;;;;;;9.90;6.68;;;44.20;38.40;42.50;100394;;;;579375;244;23047;-80
2023/06/16 08:12:12;;;;;;;8.13;7.62;;;43.50;39.20;42.20;100390;;;;579484;244;23081;-80
2023/06/16 08:14:40;;;;;;;7.40;6.82;;;43.20;39.70;41.10;100397;;;;576718;244;23068;-80
2023/06/16 08:17:07;;;;;;;7.62;6.82;;;42.30;40.50;40.90;100396;;;;578611;244;24102;-79
2023/06/16 08:19:32;;;;;;;8.85;7.97;;;41.70;41.80;41.50;100392;;;;579038;244;23087;-80
2023/06/16 08:22:00;;;;;;;9.73;8.60;;;42.00;41.20;41.70;100389;;;;579116;244;24071;-80
2023/06/16 08:24:28;;;;;;;10.60;6.68;;;42.30;40.90;41.60;100393;;;;579223;244;23113;-79
2023/06/16 08:26:56;;;;;;;7.25;6.68;;;42.30;41.80;41.90;100384;;;;579092;244;23098;-79
2023/06/16 08:29:24;;;;;;;7.95;7.35;;;42.60;40.70;42.00;100392;;;;579221;244;23105;-79
2023/06/16 08:31:53;;;;;;;8.13;7.53;;;42.70;40.40;41.60;100392;;;;579020;244;23063;-80
2023/06/16 08:34:20;;;;;;;6.95;6.55;;;42.50;40.70;41.40;100391;;;;579083;244;24130;-80
2023/06/16 08:36:51;;;;;;;8.05;7.35;;;42.30;40.80;41.50;100393;;;;578967;244;23087;-80
2023/06/16 08:39:16;;;;;;;8.13;7.53;;;42.40;41.10;41.30;100393;;;;578646;244;23072;-81
2023/06/16 08:41:44;;;;;;;9.30;6.85;;;42.20;42.00;41.30;100395;;;;579011;244;23119;-80
2023/06/16 08:44:13;;;;;;;8.57;6.68;;;42.10;41.40;41.80;100396;;;;578784;244;23071;-81
2023/06/16 08:46:40;;;;;;;8.57;7.47;;;42.40;41.20;42.10;100395;;;;578697;244;23066;-80
2023/06/16 08:49:07;;;;;;;7.85;7.37;;;42.80;40.90;41.40;100390;;;;578890;244;23071;-80
2023/06/16 08:51:37;;;;;;;8.02;7.28;;;42.60;41.50;41.10;100393;;;;578785;244;23057;-80
2023/06/16 08:54:06;;;;;;;8.52;7.93;;;42.20;41.30;41.00;100393;;;;578815;244;23121;-80
2023/06/16 08:56:34;;;;;;;11.82;9.10;;;42.20;41.60;40.70;100392;;;;578684;244;23112;-79
2023/06/16 08:59:05;;;;;;;8.98;8.27;;;41.90;42.20;40.40;100395;;;;578670;244;23085;-80
2023/06/16 09:01:33;;;;;;;7.70;6.97;;;41.60;42.60;40.80;100390;;;;578595;244;23125;-79
2023/06/16 09:03:58;;;;;;;8.20;7.43;;;41.80;41.80;41.20;100395;;;;579093;244;23081;-80
2023/06/16 09:06:26;;;;;;;8.73;6.53;;;42.00;41.50;41.20;100393;;;;579493;242;23045;-79
2023/06/16 09:08:54;;;;;;;6.87;6.37;;;42.20;40.90;41.40;100404;;;;580131;243;23063;-80
2023/06/16 09:11:25;;;;;;;6.20;5.70;;;42.40;40.60;41.30;100395;;;;579944;244;23300;-79
2023/06/16 09:13:57;;;;;;;6.45;5.75;;;42.40;40.60;41.80;100394;;;;579646;244;23062;-80
2023/06/16 09:16:21;;;;;;;8.25;5.25;;;42.70;40.60;42.40;100393;;;;579134;244;23149;-79
2023/06/16 09:18:49;;;;;;;7.78;5.32;;;43.40;40.10;43.00;100394;;;;582271;244;23060;-80
2023/06/16 09:21:25;;;;;;;8.25;7.40;;;44.10;38.90;43.60;100398;;;;579327;244;23096;-80
2023/06/16 09:23:48;;;;;;;5.90;5.50;;;44.60;39.00;44.00;100396;;;;578953;244;23067;-81
2023/06/16 09:26:17;;;;;;;6.68;6.07;;;45.30;39.40;44.00;100404;;;;578274;244;23083;-81
2023/06/16 09:28:45;;;;;;;8.80;8.00;;;45.30;38.80;44.50;100399;;;;579214;244;23112;-81
2023/06/16 09:31:15;;;;;;;7.80;7.32;;;45.80;38.10;42.70;100399;;;;578932;244;23088;-80
2023/06/16 09:33:43;;;;;;;9.27;8.48;;;44.80;38.20;41.70;100389;;;;579233;244;23111;-81
2023/06/16 09:36:09;;;;;;;8.15;7.55;;;43.60;40.30;42.80;100396;;;;579355;244;23083;-81
2023/06/16 09:38:39;;;;;;;10.05;9.05;;;43.90;39.70;41.80;100386;;;;579000;244;23084;-80
2023/06/16 09:41:10;;;;;;;9.00;7.90;;;42.80;40.60;41.40;100389;;;;579199;244;23058;-79
2023/06/16 09:43:38;;;;;;;8.40;7.70;;;42.80;40.60;42.80;100395;;;;578866;244;24102;-81
2023/06/16 09:46:06;;;;;;;13.93;9.10;;;43.60;40.80;43.70;100385;;;;578882;244;23047;-80
2023/06/16 09:48:35;;;;;;;9.70;8.82;;;45.00;38.80;43.90;100374;;;;578614;244;23068;-81
2023/06/16 09:51:03;;;;;;;8.88;8.25;;;45.90;38.90;44.90;100383;;;;578474;244;23291;-81
2023/06/16 09:53:35;;;;;;;7.35;6.72;;;45.90;38.20;46.20;100377;;;;578224;244;23094;-80
2023/06/16 09:55:59;;;;;;;7.45;6.75;;;47.10;37.20;47.60;100386;;;;578356;244;23101;-79
2023/06/16 09:58:27;;;;;;;7.68;7.10;;;48.60;36.80;48.40;100382;;;;578555;244;23127;-81
2023/06/16 10:00:55;;;;;;;6.68;6.20;;;49.60;35.60;48.70;100383;;;;578602;244;23094;-80
2023/06/16 10:03:24;;;;;;;7.25;6.75;;;50.10;33.80;48.10;100384;;;;578998;244;23062;-79
2023/06/16 10:05:51;;;;;;;6.82;6.32;;;50.10;33.70;46.80;100385;;;;578669;244;23093;-79
2023/06/16 10:08:22;;;;;;;6.72;6.30;;;49.20;34.00;45.80;100378;;;;578540;244;23110;-80
2023/06/16 10:10:47;;;;;;;6.93;6.28;;;48.20;34.40;44.60;100379;;;;578189;244;23127;-80
2023/06/16 10:13:15;;;;;;;6.37;5.87;;;46.80;35.50;44.20;100372;;;;578574;244;23131;-81
2023/06/16 10:15:43;;;;;;;7.55;6.85;;;45.00;37.40;43.00;100379;;;;578674;244;23063;-79
2023/06/16 10:18:11;;;;;;;8.82;5.65;;;45.00;37.30;42.70;100378;;;;579007;243;23053;-80
2023/06/16 10:20:39;;;;;;;6.80;6.20;;;44.40;39.50;42.80;100382;;;;579773;243;23105;-80
2023/06/16 10:23:07;;;;;;;6.55;5.95;;;44.30;38.30;42.20;100378;;;;574546;244;35194;-79
2023/06/16 10:25:38;;;;;;;6.35;5.82;;;43.80;38.40;41.70;100370;;;;579498;244;23064;-80
2023/06/16 10:28:07;;;;;;;6.93;5.15;;;43.40;38.50;41.60;100376;;;;579183;244;23144;-79
2023/06/16 10:30:31;;;;;;;6.78;4.85;;;43.00;39.00;41.70;100384;;;;579083;244;23070;-80
2023/06/16 10:32:59;;;;;;;5.07;4.70;;;43.00;39.70;41.30;100374;;;;579917;244;23064;-80
2023/06/16 10:35:27;;;;;;;4.90;4.50;;;42.60;38.30;40.50;100381;;;;579632;244;23099;-79
2023/06/16 10:37:55;;;;;;;8.77;5.28;;;42.10;39.10;40.00;100372;;;;579344;244;23047;-79
2023/06/16 10:40:22;;;;;;;5.32;4.82;;;41.50;41.00;39.50;100375;;;;582527;241;23072;-79
2023/06/16 10:42:52;;;;;;;9.60;5.53;;;40.80;41.60;39.00;100380;;;;584095;241;23030;-79
2023/06/16 10:45:39;;;;;;;6.37;4.80;;;39.90;42.80;37.80;100380;;;;573824;246;23119;-79
2023/06/16 10:48:10;;;;;;;6.78;4.57;;;38.70;42.60;36.40;100373;;;;573114;246;23072;-78
2023/06/16 10:50:42;;;;;;;4.12;3.72;;;37.40;44.90;35.50;100367;;;;573719;246;23089;-79
2023/06/16 10:53:10;;;;;;;4.80;4.40;;;36.40;45.20;34.00;100367;;;;573492;246;23054;-78
2023/06/16 10:55:40;;;;;;;5.15;4.57;;;35.10;46.40;32.90;100374;;;;583148;241;23097;-78
2023/06/16 10:58:21;;;;;;;4.40;3.92;;;34.00;47.90;31.50;100363;;;;583714;241;23026;-79
2023/06/16 11:00:57;;;;;;;4.87;4.47;;;32.60;49.90;30.30;100369;;;;573009;246;24055;-78
2023/06/16 11:03:46;;;;;;;11.35;4.72;;;31.30;52.00;29.50;100369;;;;582012;241;24091;-79
2023/06/16 11:06:17;;;;;;;5.15;4.65;;;30.30;53.90;29.10;100362;;;;573782;246;23066;-78
2023/06/16 11:08:52;;;;;;;7.90;5.78;;;29.70;55.10;28.60;100369;;;;568293;246;35042;-77